Time;durP1;ratioP1;P1;durP2;ratioP2;P2;SDS_P1;SDS_P2;PMS_P1;PMS_P2;Temp;Humidity;BMP_temperature;BMP_pressure;BME280_temperature;BME280_humidity;BME280_pressure;Samples;Min_cycle;Max_cycle;Signal;HPM_P1;HPM_P2
2022/03/16 00:01:55;;;;;;;15.27;13.77;;;8.80;99.90;;;;;;5056269;28;20171;-56
2022/03/16 00:04:21;;;;;;;17.63;14.57;;;8.80;99.90;;;;;;5056226;28;20218;-56
2022/03/16 00:06:46;;;;;;;15.53;14.03;;;8.80;99.90;;;;;;5055918;28;20341;-56
2022/03/16 00:09:12;;;;;;;15.07;13.47;;;8.80;99.90;;;;;;5056030;28;20217;-52
2022/03/16 00:11:37;;;;;;;14.90;13.40;;;8.80;99.90;;;;;;5055360;28;20179;-56
2022/03/16 00:14:03;;;;;;;15.80;14.27;;;8.70;99.90;;;;;;5056162;28;20229;-56
2022/03/16 00:16:29;;;;;;;14.77;13.27;;;8.70;99.90;;;;;;5055454;28;20615;-58
2022/03/16 00:18:54;;;;;;;15.03;13.57;;;8.80;99.90;;;;;;5056434;28;20206;-57
2022/03/16 00:21:20;;;;;;;16.50;14.80;;;8.80;99.90;;;;;;5055752;28;20178;-55
2022/03/16 00:23:46;;;;;;;16.47;14.73;;;8.80;99.90;;;;;;5056151;28;20175;-58
2022/03/16 00:26:11;;;;;;;16.10;14.50;;;8.70;99.90;;;;;;5054074;28;20214;-56
2022/03/16 00:28:37;;;;;;;16.70;15.20;;;8.70;99.90;;;;;;5055206;28;20193;-56
2022/03/16 00:31:03;;;;;;;17.23;15.53;;;8.60;99.90;;;;;;5055323;28;20178;-57
2022/03/16 00:33:28;;;;;;;17.63;15.20;;;8.60;99.90;;;;;;5056218;28;20195;-57
2022/03/16 00:35:54;;;;;;;17.10;15.50;;;8.60;99.90;;;;;;5054570;28;20202;-57
2022/03/16 00:38:19;;;;;;;16.57;15.07;;;8.60;99.90;;;;;;5055903;28;20183;-54
2022/03/16 00:40:45;;;;;;;16.97;15.37;;;8.60;99.90;;;;;;5056190;28;20179;-56
2022/03/16 00:43:10;;;;;;;17.30;15.73;;;8.60;99.90;;;;;;5059745;28;20182;-55
2022/03/16 00:45:36;;;;;;;16.77;15.17;;;8.60;99.90;;;;;;5059434;28;20285;-57
2022/03/16 00:48:01;;;;;;;17.13;15.53;;;8.50;99.90;;;;;;5059993;28;20175;-56
2022/03/16 00:50:27;;;;;;;16.43;14.93;;;8.50;99.90;;;;;;5060201;28;20708;-56
2022/03/16 00:52:53;;;;;;;17.00;15.33;;;8.50;99.90;;;;;;5059525;28;20170;-56
2022/03/16 00:55:20;;;;;;;17.93;16.13;;;8.40;99.90;;;;;;5059820;28;20536;-55
2022/03/16 00:57:45;;;;;;;16.50;14.77;;;8.40;99.90;;;;;;5059951;28;20176;-52
2022/03/16 01:00:11;;;;;;;16.10;14.47;;;8.40;99.90;;;;;;5060086;28;20282;-54
2022/03/16 01:02:37;;;;;;;15.40;14.00;;;8.40;99.90;;;;;;5059816;28;20644;-54
2022/03/16 01:05:04;;;;;;;16.53;15.03;;;8.40;99.90;;;;;;5059042;28;20225;-54
2022/03/16 01:07:29;;;;;;;16.47;14.87;;;8.40;99.90;;;;;;5058051;28;20186;-53
2022/03/16 01:09:55;;;;;;;14.97;13.57;;;8.40;99.90;;;;;;5059497;28;20231;-53
2022/03/16 01:12:21;;;;;;;15.37;13.87;;;8.40;99.90;;;;;;5058993;28;20171;-56
2022/03/16 01:14:47;;;;;;;15.27;13.77;;;8.40;99.90;;;;;;5058531;28;20163;-54
2022/03/16 01:17:12;;;;;;;15.07;13.57;;;9.40;99.90;;;;;;5058935;28;20199;-56
2022/03/16 01:19:38;;;;;;;15.07;13.67;;;8.30;99.90;;;;;;5058776;28;20179;-54
2022/03/16 01:22:05;;;;;;;15.50;14.00;;;8.30;99.90;;;;;;5057588;28;20175;-53
2022/03/16 01:24:31;;;;;;;15.57;14.07;;;8.30;99.90;;;;;;5058549;28;20180;-53
2022/03/16 01:26:56;;;;;;;15.10;13.70;;;8.20;99.90;;;;;;5058439;28;20226;-56
2022/03/16 01:29:24;;;;;;;15.40;13.90;;;8.20;99.90;;;;;;5058756;28;20179;-57
2022/03/16 01:31:51;;;;;;;15.17;13.77;;;8.10;99.90;;;;;;5059171;28;20175;-56
2022/03/16 01:34:16;;;;;;;16.33;14.67;;;8.10;99.90;;;;;;5059228;28;20201;-57
2022/03/16 01:36:42;;;;;;;14.93;13.50;;;8.10;99.90;;;;;;5057964;28;20214;-54
2022/03/16 01:39:07;;;;;;;15.30;13.80;;;8.00;99.90;;;;;;5058416;28;20187;-53
2022/03/16 01:41:33;;;;;;;14.70;13.30;;;7.90;99.90;;;;;;5057255;28;20192;-56
2022/03/16 01:43:58;;;;;;;15.30;13.80;;;7.90;99.90;;;;;;5058735;28;20547;-57
2022/03/16 01:46:24;;;;;;;14.33;12.93;;;7.80;99.90;;;;;;5057130;28;20777;-57
2022/03/16 01:48:53;;;;;;;14.80;13.37;;;7.80;99.90;;;;;;5059160;28;20648;-56
2022/03/16 01:51:20;;;;;;;14.90;13.40;;;7.70;99.90;;;;;;5058483;28;20171;-55
2022/03/16 01:53:46;;;;;;;13.73;12.43;;;7.70;99.90;;;;;;5057258;28;20194;-53
2022/03/16 01:56:11;;;;;;;13.47;12.17;;;7.60;99.90;;;;;;5058652;28;20199;-58
2022/03/16 01:58:37;;;;;;;14.40;12.97;;;7.60;99.90;;;;;;5059633;28;20190;-57
2022/03/16 02:01:03;;;;;;;14.40;13.00;;;7.60;99.90;;;;;;5059345;28;20199;-56
2022/03/16 02:03:28;;;;;;;13.80;12.33;;;7.60;99.90;;;;;;5059562;28;20182;-55
2022/03/16 02:05:55;;;;;;;14.20;12.80;;;7.50;99.90;;;;;;5058674;28;20211;-57
2022/03/16 02:08:20;;;;;;;13.10;11.80;;;7.60;99.90;;;;;;5058956;28;20171;-56
2022/03/16 02:10:46;;;;;;;13.13;11.70;;;7.70;99.90;;;;;;5062045;28;20597;-56
2022/03/16 02:13:12;;;;;;;13.80;12.40;;;7.70;99.90;;;;;;5057891;28;20171;-56
2022/03/16 02:15:39;;;;;;;14.17;12.80;;;7.70;99.90;;;;;;5058572;28;20191;-53
2022/03/16 02:18:04;;;;;;;14.13;12.73;;;7.60;99.90;;;;;;5057293;28;20186;-53
2022/03/16 02:20:30;;;;;;;13.27;12.00;;;7.60;99.90;;;;;;5057738;28;20265;-53
2022/03/16 02:22:58;;;;;;;14.00;12.60;;;7.60;99.90;;;;;;5056904;28;20645;-55
2022/03/16 02:25:25;;;;;;;14.00;12.67;;;7.50;99.90;;;;;;5039984;28;20203;-57
2022/03/16 02:27:52;;;;;;;15.20;13.70;;;7.40;99.90;;;;;;5057135;28;20255;-54
2022/03/16 02:30:19;;;;;;;14.70;13.20;;;7.40;99.90;;;;;;5057521;28;20186;-54
2022/03/16 02:32:45;;;;;;;14.47;13.07;;;7.50;99.90;;;;;;5039549;28;20205;-53
2022/03/16 02:35:11;;;;;;;13.73;12.40;;;7.60;99.90;;;;;;5057885;28;20224;-55
2022/03/16 02:37:38;;;;;;;14.83;13.43;;;7.60;99.90;;;;;;5056232;28;20217;-56
2022/03/16 02:40:09;;;;;;;14.83;13.33;;;7.40;99.90;;;;;;5055760;28;20174;-54
2022/03/16 02:42:35;;;;;;;14.57;13.17;;;7.90;99.90;;;;;;5056813;28;20182;-57
2022/03/16 02:45:00;;;;;;;14.93;13.47;;;9.50;99.90;;;;;;5056817;28;20191;-56
2022/03/16 02:47:27;;;;;;;15.23;13.63;;;7.90;99.90;;;;;;5055946;28;20195;-52
2022/03/16 02:49:54;;;;;;;15.20;13.70;;;7.90;99.90;;;;;;5056507;28;20187;-57
2022/03/16 02:52:21;;;;;;;15.60;14.10;;;8.00;99.90;;;;;;5056222;28;20539;-52
2022/03/16 02:54:46;;;;;;;15.30;13.80;;;7.90;99.90;;;;;;5056281;28;20163;-57
2022/03/16 02:57:16;;;;;;;16.13;14.53;;;7.80;99.90;;;;;;5055412;28;20201;-53
2022/03/16 02:59:44;;;;;;;17.47;15.20;;;7.80;99.90;;;;;;5055831;28;20247;-54
2022/03/16 03:02:10;;;;;;;16.50;14.73;;;7.70;99.90;;;;;;5056272;28;20178;-55
2022/03/16 03:04:36;;;;;;;16.27;14.57;;;7.60;99.90;;;;;;5055333;28;20198;-56
2022/03/16 03:07:01;;;;;;;16.30;14.70;;;7.60;99.90;;;;;;5055635;28;20699;-52
2022/03/16 03:09:27;;;;;;;17.27;15.57;;;7.50;99.90;;;;;;5056050;28;20250;-57
2022/03/16 03:11:53;;;;;;;17.87;16.07;;;7.50;99.90;;;;;;5055855;28;20162;-54
2022/03/16 03:14:19;;;;;;;17.73;15.93;;;7.50;99.90;;;;;;5056064;28;20242;-57
2022/03/16 03:16:46;;;;;;;18.73;16.83;;;7.60;99.90;;;;;;5055636;28;20218;-54
2022/03/16 03:19:12;;;;;;;18.00;16.30;;;7.60;99.90;;;;;;5056042;28;20206;-55
2022/03/16 03:21:38;;;;;;;19.00;17.10;;;7.50;99.90;;;;;;5055831;28;20175;-55
2022/03/16 03:24:04;;;;;;;18.27;16.47;;;7.30;99.90;;;;;;5055809;28;20552;-54
2022/03/16 03:26:29;;;;;;;19.27;17.37;;;7.30;99.90;;;;;;5055150;28;20213;-52
2022/03/16 03:28:55;;;;;;;17.93;16.07;;;7.10;99.90;;;;;;5055874;28;20175;-57
2022/03/16 03:31:20;;;;;;;18.80;16.80;;;7.10;99.90;;;;;;5055671;28;20178;-56
2022/03/16 03:33:46;;;;;;;17.87;15.97;;;7.00;99.90;;;;;;5055187;28;20171;-56
2022/03/16 03:36:11;;;;;;;19.67;17.67;;;6.90;99.90;;;;;;5052297;22;20249;-55
2022/03/16 03:38:37;;;;;;;19.47;17.47;;;6.90;99.90;;;;;;4977889;28;20653;-53
2022/03/16 03:41:04;;;;;;;19.27;17.37;;;6.90;99.90;;;;;;5021669;28;20174;-57
2022/03/16 03:43:29;;;;;;;20.07;17.93;;;7.00;99.90;;;;;;4951582;28;20170;-54
2022/03/16 03:45:55;;;;;;;19.27;17.37;;;6.90;99.90;;;;;;4955791;28;20214;-53
2022/03/16 03:48:20;;;;;;;19.73;17.67;;;6.90;99.90;;;;;;4950983;28;20167;-58
2022/03/16 03:50:46;;;;;;;20.20;18.10;;;6.80;99.90;;;;;;4951328;28;20684;-53
2022/03/16 03:53:11;;;;;;;18.87;16.97;;;6.80;99.90;;;;;;4936964;28;20631;-53
2022/03/16 03:55:37;;;;;;;18.93;16.93;;;6.80;99.90;;;;;;5051125;28;20178;-55
2022/03/16 03:58:02;;;;;;;19.90;17.80;;;6.80;99.90;;;;;;5051691;28;20182;-53
2022/03/16 04:00:28;;;;;;;19.37;17.37;;;6.80;99.90;;;;;;5051629;28;20168;-55
2022/03/16 04:02:53;;;;;;;19.73;17.73;;;6.70;99.90;;;;;;5033874;28;20179;-58
2022/03/16 04:05:20;;;;;;;20.80;18.57;;;6.80;99.90;;;;;;5051525;28;20202;-56
2022/03/16 04:07:45;;;;;;;18.83;16.83;;;6.80;99.90;;;;;;5051541;28;20249;-54
2022/03/16 04:10:11;;;;;;;19.97;17.33;;;6.80;99.90;;;;;;5048103;28;20171;-56
2022/03/16 04:12:37;;;;;;;21.33;18.93;;;7.00;99.90;;;;;;5051533;28;20179;-55
2022/03/16 04:15:03;;;;;;;19.80;17.87;;;7.10;99.90;;;;;;5051511;28;20178;-53
2022/03/16 04:17:29;;;;;;;19.27;17.30;;;7.10;99.90;;;;;;5050537;28;20255;-55
2022/03/16 04:19:54;;;;;;;19.90;17.40;;;7.00;99.90;;;;;;5051712;28;20222;-57
2022/03/16 04:22:20;;;;;;;18.37;16.47;;;7.00;99.90;;;;;;5051679;28;20174;-51
2022/03/16 04:24:46;;;;;;;17.33;15.53;;;7.00;99.90;;;;;;5051679;28;20620;-53
2022/03/16 04:27:11;;;;;;;18.43;16.43;;;7.10;99.90;;;;;;5051060;28;20211;-54
2022/03/16 04:29:37;;;;;;;18.73;16.83;;;7.20;99.90;;;;;;5050856;28;20236;-57
2022/03/16 04:32:03;;;;;;;18.10;16.27;;;7.20;99.90;;;;;;5051369;28;20167;-58
2022/03/16 04:34:28;;;;;;;20.20;18.10;;;7.10;99.90;;;;;;5051636;28;20175;-54
2022/03/16 04:36:54;;;;;;;18.40;16.50;;;7.00;99.90;;;;;;5050917;28;20214;-52
2022/03/16 04:39:19;;;;;;;17.93;16.13;;;6.90;99.90;;;;;;5051446;28;20226;-56
2022/03/16 04:41:45;;;;;;;18.10;16.30;;;6.80;99.90;;;;;;5051438;28;20254;-56
2022/03/16 04:44:11;;;;;;;19.77;17.43;;;5.60;99.90;;;;;;5051303;28;20662;-54
2022/03/16 04:46:36;;;;;;;18.50;16.60;;;6.70;99.90;;;;;;4956928;28;20587;-55
2022/03/16 04:49:02;;;;;;;17.40;15.63;;;6.70;99.90;;;;;;4950499;28;20261;-54
2022/03/16 04:51:27;;;;;;;18.50;16.53;;;6.80;99.90;;;;;;4950365;28;20267;-53
2022/03/16 04:53:53;;;;;;;18.20;16.37;;;6.70;99.90;;;;;;4950578;28;20185;-53
2022/03/16 04:56:18;;;;;;;17.80;16.00;;;6.70;99.90;;;;;;4950109;28;20190;-55
2022/03/16 04:58:44;;;;;;;17.57;15.77;;;6.70;99.90;;;;;;4950432;28;20179;-58
2022/03/16 05:01:09;;;;;;;16.50;14.80;;;6.80;99.90;;;;;;4950374;28;20229;-57
2022/03/16 05:03:35;;;;;;;16.30;14.63;;;6.90;99.90;;;;;;4950591;28;20313;-55
2022/03/16 05:06:00;;;;;;;16.33;14.63;;;6.90;99.90;;;;;;4949997;28;20253;-53
2022/03/16 05:08:26;;;;;;;16.07;14.47;;;6.90;99.90;;;;;;4950452;28;20714;-56
2022/03/16 05:10:52;;;;;;;17.17;15.37;;;6.80;99.90;;;;;;4949587;28;20174;-58
2022/03/16 05:13:17;;;;;;;16.73;15.03;;;6.80;99.90;;;;;;4950463;28;20210;-58
2022/03/16 05:15:43;;;;;;;16.17;14.57;;;6.70;99.90;;;;;;4949939;28;20203;-52
2022/03/16 05:18:08;;;;;;;18.33;16.43;;;6.80;99.90;;;;;;4950174;28;20175;-53
2022/03/16 05:20:34;;;;;;;16.67;14.90;;;6.70;99.90;;;;;;4950123;28;20175;-55
2022/03/16 05:22:59;;;;;;;17.40;15.60;;;6.70;99.90;;;;;;4950281;28;20655;-57
2022/03/16 05:25:27;;;;;;;16.93;15.23;;;6.60;99.90;;;;;;4932817;28;20245;-53
2022/03/16 05:27:54;;;;;;;17.77;15.87;;;6.60;99.90;;;;;;4950610;28;20190;-59
2022/03/16 05:30:22;;;;;;;17.57;15.77;;;6.50;99.90;;;;;;4951382;28;20228;-54
2022/03/16 05:32:50;;;;;;;16.63;14.93;;;6.50;99.90;;;;;;4951921;28;20167;-52
2022/03/16 05:35:15;;;;;;;16.27;14.57;;;6.60;99.90;;;;;;4952627;28;20630;-58
2022/03/16 05:37:41;;;;;;;14.93;13.43;;;6.70;99.90;;;;;;4951579;28;20211;-59
2022/03/16 05:40:10;;;;;;;16.07;14.47;;;6.90;99.90;;;;;;4952181;28;20240;-54
2022/03/16 05:42:36;;;;;;;16.00;14.40;;;7.10;99.90;;;;;;4952921;28;20170;-58
2022/03/16 05:45:02;;;;;;;16.30;14.70;;;7.10;99.90;;;;;;5019517;28;20265;-55
2022/03/16 05:47:27;;;;;;;16.03;14.33;;;7.10;99.90;;;;;;4952204;28;20201;-55
2022/03/16 05:49:54;;;;;;;16.80;15.10;;;6.90;99.90;;;;;;4952986;28;20228;-56
2022/03/16 05:52:21;;;;;;;16.20;14.60;;;6.80;99.90;;;;;;4952887;28;20182;-50
2022/03/16 05:54:48;;;;;;;16.27;14.67;;;6.70;99.90;;;;;;4956569;28;20179;-52
2022/03/16 05:57:15;;;;;;;16.63;14.93;;;6.70;99.90;;;;;;4952749;28;20194;-57
2022/03/16 05:59:41;;;;;;;15.30;13.87;;;6.70;99.90;;;;;;4952525;28;20171;-54
2022/03/16 06:02:06;;;;;;;15.83;14.33;;;6.70;99.90;;;;;;4952758;28;20181;-58
2022/03/16 06:04:32;;;;;;;14.57;13.07;;;6.70;99.90;;;;;;5164665;22;20230;-52
2022/03/16 06:06:57;;;;;;;14.97;13.40;;;6.70;99.90;;;;;;5070201;28;20214;-56
2022/03/16 06:09:23;;;;;;;15.87;14.23;;;;;;;;;;5073089;28;20178;-55
2022/03/16 06:11:49;;;;;;;14.87;13.37;;;6.80;99.90;;;;;;5073057;28;20639;-58
2022/03/16 06:14:14;;;;;;;14.50;13.10;;;6.80;99.90;;;;;;5072771;28;20974;-56
2022/03/16 06:16:40;;;;;;;14.13;12.77;;;6.90;99.90;;;;;;5073111;28;20296;-53
2022/03/16 06:19:05;;;;;;;13.20;11.80;;;7.00;99.90;;;;;;5054892;28;20273;-56
2022/03/16 06:21:31;;;;;;;14.23;12.83;;;7.30;99.90;;;;;;5070259;28;20174;-51
2022/03/16 06:23:56;;;;;;;13.83;12.53;;;7.20;99.90;;;;;;5073216;28;20240;-58
2022/03/16 06:26:22;;;;;;;13.53;12.23;;;;;;;;;;5072703;28;20347;-59
2022/03/16 06:28:48;;;;;;;13.47;12.17;;;7.30;99.90;;;;;;5076781;28;20704;-57
2022/03/16 06:31:13;;;;;;;13.40;12.10;;;7.20;99.90;;;;;;5072979;28;20228;-57
2022/03/16 06:33:39;;;;;;;12.83;11.63;;;7.30;99.90;;;;;;5093570;28;20178;-56
2022/03/16 06:36:04;;;;;;;13.37;12.00;;;7.40;99.90;;;;;;5089167;28;20218;-58
2022/03/16 06:38:30;;;;;;;12.00;10.80;;;7.60;99.90;;;;;;5072919;28;20245;-58
2022/03/16 06:40:55;;;;;;;13.27;11.97;;;7.80;99.90;;;;;;5072208;28;20183;-58
2022/03/16 06:43:21;;;;;;;12.37;11.17;;;8.00;99.90;;;;;;5072596;28;20178;-57
2022/03/16 06:45:46;;;;;;;12.30;11.10;;;8.10;99.90;;;;;;5072485;28;20237;-56
2022/03/16 06:48:12;;;;;;;12.10;11.00;;;8.30;99.90;;;;;;5072634;28;20753;-57
2022/03/16 06:50:38;;;;;;;13.13;11.93;;;8.50;99.90;;;;;;5073255;28;20162;-58
2022/03/16 06:53:03;;;;;;;12.30;11.13;;;8.50;99.90;;;;;;5072104;28;20171;-58
2022/03/16 06:55:29;;;;;;;12.37;11.07;;;8.40;99.90;;;;;;5072486;28;20204;-58
2022/03/16 06:57:55;;;;;;;12.73;11.50;;;8.50;99.90;;;;;;5072698;28;20189;-58
2022/03/16 07:00:21;;;;;;;12.93;11.67;;;8.50;99.90;;;;;;5072116;28;20264;-57
2022/03/16 07:02:52;;;;;;;12.43;11.27;;;8.30;99.90;;;;;;5073181;28;20662;-55
2022/03/16 07:05:18;;;;;;;12.90;11.60;;;8.10;99.90;;;;;;5072281;28;20678;-57
2022/03/16 07:07:44;;;;;;;12.37;11.17;;;7.60;99.90;;;;;;5072626;28;20175;-54
2022/03/16 07:10:10;;;;;;;11.80;10.70;;;7.70;99.90;;;;;;5072840;28;20217;-54
2022/03/16 07:12:35;;;;;;;11.87;10.77;;;7.80;99.90;;;;;;5072372;28;20593;-58
2022/03/16 07:15:00;;;;;;;12.07;10.90;;;7.80;99.90;;;;;;5072372;28;20751;-54
2022/03/16 07:17:26;;;;;;;12.83;11.63;;;8.00;99.90;;;;;;5071870;28;20179;-56
2022/03/16 07:19:51;;;;;;;12.77;11.57;;;8.10;99.90;;;;;;5072161;28;20178;-55
2022/03/16 07:22:17;;;;;;;12.90;11.70;;;8.20;99.90;;;;;;5071894;28;20567;-54
2022/03/16 07:24:42;;;;;;;12.60;11.40;;;8.20;99.90;;;;;;5072391;28;20554;-54
2022/03/16 07:27:08;;;;;;;13.53;12.23;;;8.20;99.90;;;;;;5072169;28;20237;-52
2022/03/16 07:29:34;;;;;;;12.23;11.07;;;8.10;99.90;;;;;;5072128;28;20277;-55
2022/03/16 07:31:59;;;;;;;12.33;11.20;;;8.10;99.90;;;;;;5072750;28;20646;-57
2022/03/16 07:34:26;;;;;;;12.77;11.57;;;8.10;99.90;;;;;;5072049;28;20237;-56
2022/03/16 07:36:53;;;;;;;13.23;11.93;;;8.20;99.90;;;;;;5072178;28;20174;-51
2022/03/16 07:39:18;;;;;;;12.57;11.37;;;8.50;99.90;;;;;;5072139;28;20269;-56
2022/03/16 07:41:44;;;;;;;13.03;11.83;;;8.60;99.90;;;;;;5072223;28;20271;-57
2022/03/16 07:44:09;;;;;;;12.50;11.30;;;8.80;99.90;;;;;;5072183;28;20202;-55
2022/03/16 07:46:35;;;;;;;13.40;12.20;;;8.90;99.90;;;;;;5071616;28;20548;-58
2022/03/16 07:49:01;;;;;;;12.90;11.60;;;9.20;99.90;;;;;;5072124;28;20167;-57
2022/03/16 07:51:26;;;;;;;12.83;11.63;;;9.30;99.90;;;;;;5070808;28;20221;-56
2022/03/16 07:53:52;;;;;;;12.70;11.43;;;9.30;99.90;;;;;;5071961;28;20635;-53
2022/03/16 07:56:17;;;;;;;12.47;11.37;;;9.20;99.90;;;;;;5071512;28;20545;-56
2022/03/16 07:58:45;;;;;;;12.97;11.77;;;9.30;99.90;;;;;;5054001;28;20601;-57
2022/03/16 08:01:11;;;;;;;12.63;11.43;;;9.30;99.90;;;;;;5071850;28;20162;-55
2022/03/16 08:03:36;;;;;;;13.80;12.50;;;9.30;99.90;;;;;;5071870;28;20189;-55
2022/03/16 08:06:02;;;;;;;13.43;12.13;;;9.40;99.90;;;;;;5071567;28;20221;-55
2022/03/16 08:08:28;;;;;;;13.70;12.40;;;9.50;99.90;;;;;;5071806;28;20181;-57
2022/03/16 08:10:54;;;;;;;13.30;12.10;;;9.40;99.90;;;;;;5071886;28;20162;-58
2022/03/16 08:13:19;;;;;;;13.20;12.00;;;9.40;99.90;;;;;;5071776;28;20223;-56
2022/03/16 08:15:45;;;;;;;13.03;11.73;;;9.50;99.90;;;;;;5071615;28;20193;-57
2022/03/16 08:18:10;;;;;;;12.93;11.73;;;9.60;99.90;;;;;;5071472;28;20166;-56
2022/03/16 08:20:36;;;;;;;12.97;11.77;;;9.70;99.90;;;;;;5071665;28;20236;-56
2022/03/16 08:23:01;;;;;;;13.10;11.80;;;9.70;99.90;;;;;;5071677;28;20182;-58
2022/03/16 08:25:27;;;;;;;13.10;11.80;;;9.90;99.90;;;;;;5070868;28;20295;-57
2022/03/16 08:27:53;;;;;;;14.47;13.10;;;10.00;99.90;;;;;;5071423;28;20166;-55
2022/03/16 08:30:18;;;;;;;13.70;12.40;;;9.90;99.90;;;;;;5071430;28;20246;-58
2022/03/16 08:32:44;;;;;;;14.40;13.00;;;9.90;99.90;;;;;;5071933;28;20171;-56
2022/03/16 08:35:10;;;;;;;13.53;12.33;;;9.90;99.90;;;;;;5071397;28;20194;-58
2022/03/16 08:37:36;;;;;;;13.23;12.03;;;10.00;99.90;;;;;;5074184;28;20219;-56
2022/03/16 08:40:03;;;;;;;14.87;13.37;;;10.30;99.90;;;;;;5091701;28;20169;-56
2022/03/16 08:42:29;;;;;;;14.07;12.77;;;10.70;99.90;;;;;;5091568;28;20186;-56
2022/03/16 08:44:55;;;;;;;13.47;12.27;;;10.80;99.90;;;;;;5091418;28;20185;-57
2022/03/16 08:47:21;;;;;;;13.93;12.50;;;10.90;99.90;;;;;;5091126;28;20197;-55
2022/03/16 08:49:48;;;;;;;13.23;12.03;;;11.10;99.90;;;;;;5086490;22;20223;-55
2022/03/16 08:52:14;;;;;;;12.83;11.50;;;11.50;99.90;;;;;;5069415;28;20244;-57
2022/03/16 08:54:40;;;;;;;13.73;12.50;;;11.50;99.90;;;;;;5074464;28;20175;-58
2022/03/16 08:57:08;;;;;;;13.30;12.10;;;11.60;99.90;;;;;;5075823;28;20228;-54
2022/03/16 08:59:35;;;;;;;13.03;11.83;;;11.90;99.90;;;;;;5080127;28;20194;-56
2022/03/16 09:02:00;;;;;;;13.27;12.07;;;12.00;99.90;;;;;;5081883;28;20205;-58
2022/03/16 09:04:25;;;;;;;14.10;12.80;;;12.00;99.90;;;;;;5067850;28;20174;-57
2022/03/16 09:06:51;;;;;;;13.13;11.93;;;12.00;99.90;;;;;;5078651;28;20205;-55
2022/03/16 09:09:17;;;;;;;13.83;12.63;;;11.80;99.90;;;;;;5084800;28;20197;-56
2022/03/16 09:11:42;;;;;;;13.73;12.43;;;11.40;99.90;;;;;;5082166;28;20864;-59
2022/03/16 09:14:08;;;;;;;14.40;13.10;;;11.30;99.90;;;;;;5081509;28;20175;-59
2022/03/16 09:16:34;;;;;;;14.60;13.30;;;11.40;99.90;;;;;;5082965;28;20181;-56
2022/03/16 09:18:59;;;;;;;14.80;13.37;;;11.60;99.90;;;;;;5083807;28;20191;-56
2022/03/16 09:21:25;;;;;;;14.67;13.17;;;11.80;99.90;;;;;;5083089;28;20601;-58
2022/03/16 09:23:52;;;;;;;14.40;13.00;;;12.10;99.90;;;;;;5082251;28;20673;-59
2022/03/16 09:26:18;;;;;;;14.83;13.53;;;12.40;99.90;;;;;;5083173;28;20195;-57
2022/03/16 09:28:44;;;;;;;14.90;13.50;;;12.30;99.90;;;;;;5082539;28;20194;-56
2022/03/16 09:31:10;;;;;;;14.27;12.97;;;12.20;99.90;;;;;;5064895;28;20164;-60
2022/03/16 09:33:36;;;;;;;14.90;13.47;;;12.30;99.90;;;;;;5084699;28;20199;-58
2022/03/16 09:36:08;;;;;;;15.03;13.63;;;12.60;99.90;;;;;;5082705;28;20257;-57
2022/03/16 09:38:36;;;;;;;14.83;13.53;;;12.90;99.90;;;;;;5066533;28;20555;-58
2022/03/16 09:41:02;;;;;;;14.20;12.90;;;13.30;99.90;;;;;;5082947;28;20179;-56
2022/03/16 09:43:32;;;;;;;14.27;12.97;;;13.80;99.90;;;;;;5083348;28;20198;-56
2022/03/16 09:46:13;;;;;;;15.23;13.83;;;13.80;99.90;;;;;;5082360;28;20351;-54
2022/03/16 09:48:39;;;;;;;14.83;13.50;;;15.60;99.90;;;;;;5080814;28;20216;-57
2022/03/16 09:51:07;;;;;;;14.60;13.23;;;13.70;99.90;;;;;;5083172;28;20168;-56
2022/03/16 09:53:33;;;;;;;16.43;14.93;;;13.70;99.90;;;;;;5080486;28;20541;-56
2022/03/16 09:55:59;;;;;;;15.50;14.10;;;13.40;99.90;;;;;;5083444;28;20166;-57
2022/03/16 09:58:24;;;;;;;14.90;13.60;;;13.50;99.90;;;;;;5081069;28;20201;-58
2022/03/16 10:00:52;;;;;;;14.43;13.10;;;14.00;99.90;;;;;;5083248;28;20642;-58
2022/03/16 10:03:21;;;;;;;14.63;13.33;;;14.40;99.90;;;;;;5082266;28;20655;-54
2022/03/16 10:05:47;;;;;;;14.73;13.43;;;14.80;99.90;;;;;;5082032;28;20201;-56
2022/03/16 10:08:14;;;;;;;14.60;13.30;;;16.80;99.90;;;;;;5082693;28;20174;-60
2022/03/16 10:13:25;;;;;;;15.53;14.13;;;15.60;99.90;;;;;;5081575;28;20209;-57
2022/03/16 10:16:09;;;;;;;15.10;13.63;;;15.80;99.90;;;;;;5075362;28;20183;-58
2022/03/16 10:18:36;;;;;;;15.97;14.57;;;15.90;99.90;;;;;;5082115;28;20193;-57
2022/03/16 10:21:03;;;;;;;15.27;13.90;;;15.90;99.90;;;;;;5083266;28;20178;-58
2022/03/16 10:23:30;;;;;;;14.40;13.10;;;16.00;99.90;;;;;;5080424;28;20270;-58
2022/03/16 10:25:59;;;;;;;15.30;13.93;;;16.10;99.90;;;;;;5082174;28;20194;-58
2022/03/16 10:28:25;;;;;;;16.20;14.70;;;16.20;99.90;;;;;;5088009;28;20566;-58
2022/03/16 10:31:02;;;;;;;17.97;16.27;;;16.10;99.90;;;;;;5087294;28;20179;-60
2022/03/16 10:33:48;;;;;;;17.20;15.63;;;15.70;99.90;;;;;;5081562;28;21343;-57
2022/03/16 10:36:20;;;;;;;18.80;17.10;;;15.70;99.90;;;;;;5066027;28;20175;-57
2022/03/16 10:38:45;;;;;;;19.27;17.47;;;15.70;99.90;;;;;;5081094;28;20197;-60
2022/03/16 10:46:34;;;;;;;17.67;16.17;;;16.20;99.70;;;;;;5081276;28;20182;-57
2022/03/16 10:46:53;;;;;;;16.10;14.60;;;18.60;96.90;;;;;;5079145;28;20217;-57
2022/03/16 10:49:22;;;;;;;14.43;13.13;;;20.90;95.10;;;;;;5081649;28;20213;-57
2022/03/16 10:52:05;;;;;;;15.45;14.07;;;23.50;91.80;;;;;;5079072;28;20163;-57
2022/03/16 10:54:32;;;;;;;14.63;13.43;;;26.20;83.90;;;;;;5079764;28;20209;-56
2022/03/16 10:56:59;;;;;;;12.27;11.27;;;27.30;72.60;;;;;;5080962;28;20167;-56
2022/03/16 10:59:29;;;;;;;13.75;12.60;;;26.80;73.60;;;;;;5077663;28;20206;-53
2022/03/16 11:02:03;;;;;;;14.75;13.55;;;25.80;72.70;;;;;;5079910;28;20183;-56
2022/03/16 11:04:30;;;;;;;14.90;13.65;;;24.20;73.20;;;;;;5081414;28;20173;-53
2022/03/16 11:06:57;;;;;;;15.30;14.00;;;23.20;75.40;;;;;;5079131;28;20198;-56
2022/03/16 11:09:24;;;;;;;14.88;13.60;;;22.60;76.70;;;;;;5081124;28;20191;-55
2022/03/16 11:14:35;;;;;;;15.43;14.13;;;22.20;79.30;;;;;;5081372;28;20200;-53
2022/03/16 11:17:02;;;;;;;13.60;12.30;;;22.60;78.80;;;;;;5081339;28;20182;-55
2022/03/16 11:19:29;;;;;;;15.18;13.88;;;23.00;77.50;;;;;;5078702;28;20282;-56
2022/03/16 11:22:07;;;;;;;16.17;14.68;;;23.10;76.50;;;;;;5081149;28;20206;-56
2022/03/16 11:24:37;;;;;;;17.27;15.85;;;22.70;75.10;;;;;;5080457;28;20276;-53
2022/03/16 11:27:10;;;;;;;16.45;14.98;;;22.20;74.20;;;;;;5080554;28;20561;-57
2022/03/16 11:30:06;;;;;;;16.88;15.45;;;21.60;74.80;;;;;;5080371;28;20656;-52
2022/03/16 11:32:40;;;;;;;17.63;16.13;;;21.10;73.90;;;;;;5079162;28;20256;-55
2022/03/16 11:35:12;;;;;;;18.67;16.97;;;20.80;76.30;;;;;;5081177;28;20183;-55
2022/03/16 11:37:45;;;;;;;16.67;15.27;;;20.50;76.40;;;;;;5081439;28;20175;-57
2022/03/16 11:40:20;;;;;;;18.27;16.57;;;20.30;78.70;;;;;;5081009;28;20205;-56
2022/03/16 11:43:04;;;;;;;17.02;15.43;;;20.80;79.50;;;;;;5081530;28;20234;-58
2022/03/16 11:45:41;;;;;;;18.45;16.85;;;22.50;76.40;;;;;;5078950;28;20190;-56
2022/03/16 11:51:06;;;;;;;22.00;20.10;;;23.50;68.60;;;;;;5079341;28;20785;-58
2022/03/16 11:56:29;;;;;;;16.95;15.55;;;22.40;71.80;;;;;;5079110;28;20185;-57
2022/03/16 11:59:02;;;;;;;17.73;16.13;;;22.00;71.90;;;;;;5079062;28;20192;-60
2022/03/16 12:01:39;;;;;;;18.17;16.65;;;21.80;72.10;;;;;;5078209;28;20179;-56
2022/03/16 12:04:35;;;;;;;20.10;18.10;;;21.30;73.30;;;;;;5062826;28;20185;-58
2022/03/16 12:07:06;;;;;;;18.20;16.50;;;21.00;74.70;;;;;;5005791;28;20250;-58
2022/03/16 12:10:01;;;;;;;17.60;16.00;;;21.60;75.60;;;;;;5008799;28;20208;-59
2022/03/16 12:12:54;;;;;;;16.65;15.25;;;22.80;71.80;;;;;;5009568;28;20181;-58
2022/03/16 12:15:26;;;;;;;18.02;16.52;;;23.30;70.00;;;;;;5010573;28;20216;-60
2022/03/16 12:17:52;;;;;;;16.45;15.02;;;23.50;68.90;;;;;;5007766;28;20177;-60
2022/03/16 12:20:40;;;;;;;17.65;16.15;;;24.10;69.70;;;;;;5010585;28;20296;-60
2022/03/16 12:23:09;;;;;;;16.55;15.15;;;24.70;67.40;;;;;;5011423;28;20175;-57
2022/03/16 12:25:39;;;;;;;15.93;14.52;;;24.80;66.40;;;;;;5011980;28;20201;-58
2022/03/16 12:31:03;;;;;;;16.70;15.35;;;24.70;66.20;;;;;;5011296;28;20657;-57
2022/03/16 12:33:42;;;;;;;16.77;15.38;;;24.60;64.90;;;;;;5004152;28;20176;-58
2022/03/16 12:36:12;;;;;;;16.65;15.25;;;24.20;64.70;;;;;;5002433;28;20181;-55
2022/03/16 12:38:49;;;;;;;16.13;14.75;;;23.40;64.80;;;;;;5008412;28;20310;-58
2022/03/16 12:44:09;;;;;;;15.70;14.40;;;22.00;66.90;;;;;;5049375;28;20731;-53
2022/03/16 12:47:03;;;;;;;17.10;15.63;;;21.60;67.70;;;;;;5080904;28;20203;-57
2022/03/16 12:49:28;;;;;;;20.47;18.57;;;21.40;67.20;;;;;;5080095;28;20202;-57
2022/03/16 12:51:59;;;;;;;17.77;16.27;;;21.10;67.30;;;;;;5082640;28;20171;-57
2022/03/16 12:54:30;;;;;;;20.13;18.33;;;20.80;69.20;;;;;;5083105;28;20236;-54